Terminal Aerodrome Forecast
Issued by NWS Cleveland, OH

Home | Current Version | Previous Version | Graphics & Text | Print | Product List | Glossary On
Versions: 1 2 3 4 5 6 7 8 9 10 11 12 13
962
FTUS41 KCLE 261729
TAFERI
TAF
KERI 261729Z 2618/2718 30008KT P6SM FEW250
     FM270100 23004KT P6SM SKC
     FM271600 28007KT P6SM SKC=

USA.gov is the U.S. government's official web portal to all federal, state and local government web resources and services.